createdAt,value
2022-12-27T00:00:48.661Z,3.4
2022-12-27T00:01:48.712Z,3.4
2022-12-27T00:02:48.818Z,3.4
2022-12-27T00:03:48.784Z,3.5
2022-12-27T00:04:48.774Z,3.6
2022-12-27T00:05:48.811Z,3.6
2022-12-27T00:06:48.843Z,3.7
2022-12-27T00:07:48.909Z,3.6
2022-12-27T00:08:48.898Z,3.7
2022-12-27T00:09:48.956Z,3.6
2022-12-27T00:10:49.020Z,3.6
2022-12-27T00:11:49.527Z,3.6
2022-12-27T00:12:49.039Z,3.7
2022-12-27T00:13:49.069Z,3.6
2022-12-27T00:14:49.137Z,3.6
2022-12-27T00:15:49.131Z,3.6
2022-12-27T00:16:49.412Z,3.6
2022-12-27T00:17:49.231Z,3.7
2022-12-27T00:18:49.251Z,3.7
2022-12-27T00:19:49.289Z,3.4
2022-12-27T00:20:49.333Z,3.4
2022-12-27T00:21:49.338Z,3.3
2022-12-27T00:23:04.376Z,3.3
2022-12-27T00:23:49.519Z,3.3
2022-12-27T00:24:49.489Z,3.5
2022-12-27T00:25:49.501Z,3.5
2022-12-27T00:26:49.551Z,3.4
2022-12-27T00:27:49.550Z,3.4
2022-12-27T00:28:49.620Z,3.5
2022-12-27T00:29:49.661Z,3.6
2022-12-27T00:30:49.672Z,3.6
2022-12-27T00:31:49.793Z,3.5
2022-12-27T00:32:49.836Z,3.6
2022-12-27T00:33:49.929Z,3.6
2022-12-27T00:34:50.015Z,3.7
2022-12-27T00:35:50.075Z,3.8
2022-12-27T00:36:50.136Z,3.6
2022-12-27T00:37:50.204Z,3.5
2022-12-27T00:38:50.316Z,3.5
2022-12-27T00:39:50.343Z,3.4
2022-12-27T00:40:50.388Z,3.4
2022-12-27T00:41:50.485Z,3.4
2022-12-27T00:42:50.517Z,3.3
2022-12-27T00:43:50.577Z,3.2
2022-12-27T00:44:50.662Z,3.3
2022-12-27T00:45:50.804Z,3.4
2022-12-27T00:46:50.791Z,3.3
2022-12-27T00:47:50.873Z,3.5
2022-12-27T00:48:50.932Z,3.4
2022-12-27T00:49:50.922Z,3.2
2022-12-27T00:50:50.959Z,3.2
2022-12-27T00:51:51.003Z,3.2
2022-12-27T00:52:51.071Z,3.2
2022-12-27T00:53:51.089Z,3.1
2022-12-27T00:54:51.090Z,3.1
2022-12-27T00:55:51.131Z,3.2
2022-12-27T00:56:51.180Z,3.2
2022-12-27T00:57:51.266Z,3.2
2022-12-27T00:58:51.310Z,3.2
2022-12-27T00:59:51.350Z,3.1
2022-12-27T01:00:51.492Z,3.1
2022-12-27T01:01:51.544Z,3.1
2022-12-27T01:02:51.489Z,3
2022-12-27T01:03:51.600Z,3.2
2022-12-27T01:04:51.604Z,3.2
2022-12-27T01:05:51.623Z,3.2
2022-12-27T01:06:51.675Z,3.3
2022-12-27T01:07:51.672Z,3.2
2022-12-27T01:08:51.758Z,3.1
2022-12-27T01:09:51.756Z,3.1
2022-12-27T01:10:51.800Z,3.1
2022-12-27T01:11:51.851Z,3.2
2022-12-27T01:12:51.882Z,3.3
2022-12-27T01:13:51.899Z,3.2
2022-12-27T01:14:51.899Z,3.1
2022-12-27T01:15:51.936Z,3
2022-12-27T01:16:52.061Z,3
2022-12-27T01:17:52.023Z,3
2022-12-27T01:18:52.095Z,3
2022-12-27T01:19:52.111Z,3
2022-12-27T01:20:52.186Z,3.1
2022-12-27T01:21:52.158Z,3.1
2022-12-27T01:22:52.211Z,3.1
2022-12-27T01:23:52.225Z,3.2
2022-12-27T01:24:52.226Z,3.3
2022-12-27T01:25:52.328Z,3.2
2022-12-27T01:26:52.390Z,3.3
2022-12-27T01:27:52.327Z,3.2
2022-12-27T01:28:52.390Z,3.2
2022-12-27T01:29:52.428Z,3.1
2022-12-27T01:30:52.442Z,3.1
2022-12-27T01:31:52.521Z,3.2
2022-12-27T01:32:52.508Z,3.1
2022-12-27T01:33:52.547Z,3.1
2022-12-27T01:34:52.562Z,3
2022-12-27T01:35:52.622Z,3
2022-12-27T01:36:52.673Z,3.1
2022-12-27T01:37:52.648Z,3.2
2022-12-27T01:38:52.731Z,3.2
2022-12-27T01:39:52.783Z,3.3
2022-12-27T01:40:52.769Z,3.3
2022-12-27T01:41:52.802Z,3.3
2022-12-27T01:42:52.858Z,3.4
2022-12-27T01:43:52.949Z,3.4
2022-12-27T01:44:53.028Z,3.4
2022-12-27T01:45:53.143Z,3.2
2022-12-27T01:46:53.193Z,3.2
2022-12-27T01:47:53.254Z,3.2
2022-12-27T01:48:53.338Z,3
2022-12-27T01:49:53.559Z,3.1
2022-12-27T01:50:53.416Z,3
2022-12-27T01:51:53.536Z,3.1
2022-12-27T01:52:53.643Z,3.2
2022-12-27T01:53:53.668Z,3.3
2022-12-27T01:54:53.717Z,3.4
2022-12-27T01:55:53.768Z,3.4
2022-12-27T01:56:53.857Z,3.4
2022-12-27T01:57:53.933Z,3.2
2022-12-27T01:58:54.000Z,3.2
2022-12-27T01:59:54.037Z,3.3
2022-12-27T02:00:54.167Z,3.4
2022-12-27T02:01:54.248Z,3.4
2022-12-27T02:02:54.229Z,3.5
2022-12-27T02:03:54.273Z,3.4
2022-12-27T02:04:54.295Z,3.3
2022-12-27T02:05:54.334Z,3.4
2022-12-27T02:06:54.349Z,3.4
2022-12-27T02:07:54.658Z,3.5
2022-12-27T02:08:54.539Z,3.5
2022-12-27T02:09:54.576Z,3.5
2022-12-27T02:10:54.987Z,3.5
2022-12-27T02:11:54.813Z,3.4
2022-12-27T02:12:54.686Z,3.4
2022-12-27T02:13:54.733Z,3.3
2022-12-27T02:14:54.756Z,3.4
2022-12-27T02:15:54.775Z,3.4
2022-12-27T02:16:54.851Z,3.4
2022-12-27T02:17:54.892Z,3.4
2022-12-27T02:18:54.968Z,3.5
2022-12-27T02:19:54.991Z,3.6
2022-12-27T02:20:54.996Z,3.5
2022-12-27T02:21:55.052Z,3.5
2022-12-27T02:22:55.099Z,3.5
2022-12-27T02:23:55.116Z,3.4
2022-12-27T02:24:55.163Z,3.4
2022-12-27T02:25:55.179Z,3.3
2022-12-27T02:26:55.234Z,3.5
2022-12-27T02:27:55.209Z,3.5
2022-12-27T02:28:55.264Z,3.4
2022-12-27T02:29:55.250Z,3.2
2022-12-27T02:30:55.338Z,3.2
2022-12-27T02:31:55.316Z,3.3
2022-12-27T02:32:55.351Z,3.3
2022-12-27T02:33:55.409Z,3.3
2022-12-27T02:34:55.426Z,3.3
2022-12-27T02:35:55.465Z,3.1
2022-12-27T02:36:55.502Z,3.3
2022-12-27T02:37:55.525Z,3.3
2022-12-27T02:38:55.583Z,3.3
2022-12-27T02:39:55.606Z,3.3
2022-12-27T02:40:55.656Z,3.4
2022-12-27T02:41:55.667Z,3.3
2022-12-27T02:42:55.680Z,3.3
2022-12-27T02:43:55.714Z,3.3
2022-12-27T02:44:55.792Z,3.4
2022-12-27T02:45:55.775Z,3.3
2022-12-27T02:46:55.792Z,3.3
2022-12-27T02:47:55.791Z,3.4
2022-12-27T02:48:55.850Z,3.5
2022-12-27T02:49:55.900Z,3.4
2022-12-27T02:50:55.907Z,3.4
2022-12-27T02:51:55.922Z,3.3
2022-12-27T02:52:55.965Z,3.4
2022-12-27T02:53:55.993Z,3.5
2022-12-27T02:54:56.075Z,3.4
2022-12-27T02:55:56.192Z,3.3
2022-12-27T02:56:56.281Z,3.2
2022-12-27T02:57:56.302Z,3.2
2022-12-27T02:58:56.388Z,3.1
2022-12-27T02:59:56.482Z,3.2
2022-12-27T03:00:56.605Z,3.3
2022-12-27T03:01:56.708Z,3.4
2022-12-27T03:02:56.745Z,3.3
2022-12-27T03:03:56.776Z,3.2
2022-12-27T03:04:56.827Z,3.2
2022-12-27T03:05:56.911Z,3.1
2022-12-27T03:06:56.968Z,3.1
2022-12-27T03:07:57.001Z,3.2
2022-12-27T03:08:57.094Z,3.1
2022-12-27T03:09:57.203Z,3.2
2022-12-27T03:10:57.251Z,3.3
2022-12-27T03:11:57.542Z,3.3
2022-12-27T03:12:57.407Z,3.3
2022-12-27T03:13:57.425Z,3.3
2022-12-27T03:14:57.494Z,3.4
2022-12-27T03:15:57.644Z,3.3
2022-12-27T03:16:57.541Z,3.3
2022-12-27T03:17:57.569Z,3.2
2022-12-27T03:18:57.653Z,3.3
2022-12-27T03:19:57.692Z,3.2
2022-12-27T03:20:57.759Z,3.4
2022-12-27T03:21:57.792Z,3.4
2022-12-27T03:22:57.811Z,3.5
2022-12-27T03:23:57.874Z,3.4
2022-12-27T03:24:57.896Z,3.3
2022-12-27T03:25:57.995Z,3.3
2022-12-27T03:26:58.031Z,3.3
2022-12-27T03:27:58.081Z,3.3
2022-12-27T03:28:58.225Z,3.5
2022-12-27T03:29:58.232Z,3.5
2022-12-27T03:30:58.262Z,3.5
2022-12-27T03:31:58.247Z,3.4
2022-12-27T03:33:36.376Z,3.4
2022-12-27T03:33:58.336Z,3.5
2022-12-27T03:34:58.339Z,3.4
2022-12-27T03:35:58.378Z,3.3
2022-12-27T03:36:58.416Z,3.2
2022-12-27T03:37:58.468Z,3.3
2022-12-27T03:38:58.464Z,3.3
2022-12-27T03:39:58.506Z,3.4
2022-12-27T03:40:58.550Z,3.4
2022-12-27T03:41:58.554Z,3.4
2022-12-27T03:42:58.644Z,3.3
2022-12-27T03:43:58.592Z,3.3
2022-12-27T03:44:58.660Z,3.4
2022-12-27T03:45:58.666Z,3.4
2022-12-27T03:46:58.653Z,3.4
2022-12-27T03:47:58.692Z,3.5
2022-12-27T03:48:58.743Z,3.5
2022-12-27T03:49:58.819Z,3.5
2022-12-27T03:50:58.868Z,3.5
2022-12-27T03:51:58.806Z,3.6
2022-12-27T03:53:04.315Z,3.7
2022-12-27T03:53:58.917Z,3.6
2022-12-27T03:54:58.925Z,3.7
2022-12-27T03:55:58.996Z,3.6
2022-12-27T03:56:59.014Z,3.6
2022-12-27T03:57:59.051Z,3.6
2022-12-27T03:58:59.066Z,3.6
2022-12-27T03:59:59.088Z,3.5
2022-12-27T04:00:59.146Z,3.4
2022-12-27T04:01:59.323Z,3.5
2022-12-27T04:02:59.502Z,3.5
2022-12-27T04:03:59.222Z,3.4
2022-12-27T04:04:59.231Z,3.4
2022-12-27T04:05:59.322Z,3.4
2022-12-27T04:06:59.365Z,3.4
2022-12-27T04:07:59.443Z,3.5
2022-12-27T04:08:59.599Z,3.5
2022-12-27T04:09:59.686Z,3.5
2022-12-27T04:10:59.735Z,3.6
2022-12-27T04:11:59.772Z,3.5
2022-12-27T04:12:59.862Z,3.4
2022-12-27T04:13:59.913Z,3.4
2022-12-27T04:14:59.975Z,3.5
2022-12-27T04:16:00.058Z,3.4
2022-12-27T04:17:00.136Z,3.5
2022-12-27T04:18:00.155Z,3.4
2022-12-27T04:19:00.274Z,3.5
2022-12-27T04:20:00.360Z,3.6
2022-12-27T04:21:00.403Z,3.5
2022-12-27T04:22:00.662Z,3.5
2022-12-27T04:23:00.582Z,3.6
2022-12-27T04:24:00.602Z,3.5
2022-12-27T04:25:00.637Z,3.5
2022-12-27T04:26:00.681Z,3.5
2022-12-27T04:27:00.790Z,3.4
2022-12-27T04:28:00.837Z,3.4
2022-12-27T04:29:00.880Z,3.5
2022-12-27T04:30:00.881Z,3.5
2022-12-27T04:31:30.576Z,3.5
2022-12-27T04:32:01.022Z,3.3
2022-12-27T04:33:01.082Z,3.3
2022-12-27T04:34:01.184Z,3.3
2022-12-27T04:35:01.150Z,3.3
2022-12-27T04:36:05.905Z,3.3
2022-12-27T04:37:01.263Z,3.4
2022-12-27T04:38:01.297Z,3.4
2022-12-27T04:39:25.039Z,3.4
2022-12-27T04:40:01.405Z,3.4
2022-12-27T04:41:01.468Z,3.4
2022-12-27T04:42:01.527Z,3.4
2022-12-27T04:43:01.586Z,3.4
2022-12-27T04:44:01.597Z,3.5
2022-12-27T04:45:01.625Z,3.5
2022-12-27T04:46:01.861Z,3.5
2022-12-27T04:47:01.686Z,3.5
2022-12-27T04:48:01.723Z,3.5
2022-12-27T04:49:01.800Z,3.4
2022-12-27T04:50:01.828Z,3.4
2022-12-27T04:51:01.849Z,3.4
2022-12-27T04:52:01.946Z,3.4
2022-12-27T04:53:52.520Z,3.2
2022-12-27T05:17:15.768Z,3.5
2022-12-27T05:18:02.732Z,3.5
2022-12-27T05:19:02.810Z,3.5
2022-12-27T05:20:02.905Z,3.5
2022-12-27T05:21:02.959Z,3.6
2022-12-27T05:22:03.279Z,3.7
2022-12-27T05:23:03.159Z,3.6
2022-12-27T05:24:05.532Z,3.5
2022-12-27T05:25:03.302Z,3.5
2022-12-27T05:26:03.353Z,3.6
2022-12-27T05:27:03.451Z,3.7
2022-12-27T05:28:03.529Z,3.7
2022-12-27T05:29:03.600Z,3.8
2022-12-27T05:30:03.638Z,3.8
2022-12-27T05:31:03.758Z,3.8
2022-12-27T05:32:06.832Z,3.7
2022-12-27T05:33:03.839Z,3.6
2022-12-27T05:34:03.848Z,3.7
2022-12-27T05:35:03.897Z,3.6
2022-12-27T05:36:03.950Z,3.6
2022-12-27T05:37:03.992Z,3.7
2022-12-27T05:38:04.047Z,3.6
2022-12-27T05:39:04.112Z,3.6
2022-12-27T05:40:04.168Z,3.7
2022-12-27T05:41:04.249Z,3.7
2022-12-27T05:42:04.267Z,3.7
2022-12-27T05:43:04.339Z,3.6
2022-12-27T05:44:07.294Z,3.7
2022-12-27T05:45:04.414Z,3.7
2022-12-27T05:46:04.466Z,3.7
2022-12-27T05:47:04.522Z,3.6
2022-12-27T05:48:04.600Z,3.6
2022-12-27T05:49:04.656Z,3.7
2022-12-27T05:50:04.715Z,3.8
2022-12-27T05:51:04.753Z,3.8
2022-12-27T05:52:04.806Z,3.7
2022-12-27T05:53:04.837Z,3.6
2022-12-27T05:54:07.081Z,3.7
2022-12-27T05:55:04.939Z,3.7
2022-12-27T05:56:05.019Z,3.8
2022-12-27T05:57:05.010Z,3.8
2022-12-27T05:58:05.054Z,3.8
2022-12-27T05:59:05.068Z,3.8
2022-12-27T06:00:05.100Z,3.9
2022-12-27T06:01:05.124Z,4
2022-12-27T06:02:05.274Z,3.9
2022-12-27T06:03:05.626Z,3.7
2022-12-27T06:04:05.216Z,3.6
2022-12-27T06:05:05.389Z,3.6
2022-12-27T06:06:06.257Z,3.7
2022-12-27T06:07:05.333Z,3.8
2022-12-27T06:08:05.377Z,3.9
2022-12-27T06:09:05.427Z,3.9
2022-12-27T06:10:05.418Z,3.9
2022-12-27T06:11:05.401Z,3.9
2022-12-27T06:12:05.519Z,3.9
2022-12-27T06:13:05.528Z,3.9
2022-12-27T06:14:05.548Z,3.8
2022-12-27T06:15:05.568Z,4
2022-12-27T06:16:05.647Z,4
2022-12-27T06:17:05.621Z,4
2022-12-27T06:18:05.691Z,3.9
2022-12-27T06:19:05.685Z,3.8
2022-12-27T06:20:05.752Z,3.7
2022-12-27T06:21:05.790Z,3.6
2022-12-27T06:22:05.805Z,3.7
2022-12-27T06:23:05.851Z,3.6
2022-12-27T06:24:05.874Z,3.7
2022-12-27T06:25:07.865Z,3.8
2022-12-27T06:26:05.949Z,3.8
2022-12-27T06:27:05.970Z,3.8
2022-12-27T06:28:06.231Z,3.8
2022-12-27T06:29:06.043Z,3.7
2022-12-27T06:30:06.158Z,3.7
2022-12-27T06:31:06.229Z,3.8
2022-12-27T06:32:06.577Z,3.8
2022-12-27T06:33:06.395Z,3.9
2022-12-27T06:34:06.480Z,4
2022-12-27T06:35:06.543Z,4
2022-12-27T06:36:06.707Z,4
2022-12-27T06:37:06.681Z,4
2022-12-27T06:38:06.708Z,3.9
2022-12-27T06:39:06.760Z,3.9
2022-12-27T06:40:06.797Z,3.9
2022-12-27T06:41:06.871Z,3.8
2022-12-27T06:42:06.923Z,3.9
2022-12-27T06:43:07.013Z,3.9
2022-12-27T06:44:07.065Z,3.9
2022-12-27T06:45:07.109Z,4
2022-12-27T06:46:07.225Z,4.1
2022-12-27T06:47:07.200Z,4
2022-12-27T06:48:07.307Z,3.8
2022-12-27T06:49:07.315Z,3.8
2022-12-27T06:50:07.349Z,3.8
2022-12-27T06:51:07.420Z,3.9
2022-12-27T06:52:07.459Z,3.9
2022-12-27T06:53:07.537Z,4
2022-12-27T06:54:07.578Z,4
2022-12-27T06:55:07.621Z,3.8
2022-12-27T06:56:07.653Z,3.9
2022-12-27T06:57:07.743Z,3.9
2022-12-27T06:58:07.774Z,3.9
2022-12-27T06:59:07.824Z,4
2022-12-27T07:00:07.911Z,4
2022-12-27T07:01:07.926Z,3.9
2022-12-27T07:02:08.047Z,3.8
2022-12-27T07:03:08.084Z,3.9
2022-12-27T07:04:08.047Z,3.9
2022-12-27T07:05:08.061Z,3.9
2022-12-27T07:06:08.117Z,4
2022-12-27T07:07:12.109Z,4.1
2022-12-27T07:08:08.230Z,4
2022-12-27T07:09:08.267Z,4
2022-12-27T07:10:11.475Z,4
2022-12-27T07:11:08.287Z,4.1
2022-12-27T07:12:08.317Z,4.1
2022-12-27T07:13:08.346Z,4.1
2022-12-27T07:14:08.398Z,4.1
2022-12-27T07:15:08.405Z,4.1
2022-12-27T07:16:08.486Z,4
2022-12-27T07:17:08.471Z,4
2022-12-27T07:18:08.538Z,4.1
2022-12-27T07:19:08.536Z,4.1
2022-12-27T07:20:08.606Z,4.1
2022-12-27T07:21:08.602Z,4
2022-12-27T07:22:08.645Z,4
2022-12-27T07:23:09.240Z,4
2022-12-27T07:24:09.027Z,4
2022-12-27T07:25:08.767Z,4
2022-12-27T07:43:06.174Z,3.8
2022-12-27T07:43:09.455Z,3.8
2022-12-27T07:44:09.524Z,3.8
2022-12-27T07:45:09.651Z,3.8
2022-12-27T07:46:09.734Z,3.9
2022-12-27T07:47:09.742Z,3.9
2022-12-27T07:48:09.850Z,3.8
2022-12-27T07:49:13.902Z,3.8
2022-12-27T07:50:09.986Z,3.8
2022-12-27T07:51:10.029Z,3.8
2022-12-27T07:52:10.112Z,3.8
2022-12-27T07:53:10.209Z,3.8
2022-12-27T07:54:10.217Z,3.8
2022-12-27T07:55:10.308Z,3.8
2022-12-27T07:56:10.405Z,3.8
2022-12-27T07:57:10.422Z,3.9
2022-12-27T07:58:10.494Z,3.9
2022-12-27T07:59:10.529Z,3.7
2022-12-27T08:00:10.538Z,3.7
2022-12-27T08:01:10.719Z,3.8
2022-12-27T08:02:10.687Z,3.9
2022-12-27T08:03:10.703Z,3.9
2022-12-27T08:04:10.725Z,3.9
2022-12-27T08:05:10.771Z,3.9
2022-12-27T08:06:10.888Z,3.8
2022-12-27T08:07:10.876Z,3.8
2022-12-27T08:08:10.921Z,3.9
2022-12-27T08:09:10.953Z,3.9
2022-12-27T08:10:11.029Z,3.9
2022-12-27T08:11:11.060Z,3.9
2022-12-27T08:12:11.145Z,4
2022-12-27T08:13:11.195Z,4
2022-12-27T08:14:11.278Z,4.1
2022-12-27T08:15:11.319Z,4.2
2022-12-27T08:16:11.314Z,4.2
2022-12-27T08:17:11.364Z,4.2
2022-12-27T08:18:11.419Z,4.4
2022-12-27T08:19:11.453Z,4.5
2022-12-27T08:20:11.459Z,4.4
2022-12-27T08:21:11.456Z,4.5
2022-12-27T08:22:11.509Z,4.5
2022-12-27T08:23:11.581Z,4.5
2022-12-27T08:24:11.608Z,4.4
2022-12-27T08:25:11.840Z,4.3
2022-12-27T08:26:11.662Z,4.3
2022-12-27T08:27:19.343Z,4.3
2022-12-27T08:28:11.715Z,4.1
2022-12-27T08:29:11.739Z,4.1
2022-12-27T08:30:11.809Z,4.2
2022-12-27T08:31:11.924Z,4.3
2022-12-27T08:32:12.089Z,4.3
2022-12-27T08:33:11.884Z,4.3
2022-12-27T08:34:11.909Z,4.3
2022-12-27T08:35:33.322Z,4.2
2022-12-27T08:36:28.998Z,4.3
2022-12-27T08:37:11.952Z,4.2
2022-12-27T08:38:12.066Z,4.3
2022-12-27T08:39:12.066Z,4.2
2022-12-27T08:40:12.436Z,4.2
2022-12-27T08:41:12.157Z,4.3
2022-12-27T08:42:17.691Z,4.3
2022-12-27T08:43:12.263Z,4.4
2022-12-27T08:45:08.997Z,4.4
2022-12-27T08:45:28.524Z,4.5
2022-12-27T08:46:12.333Z,4.6
2022-12-27T08:47:40.193Z,4.8
2022-12-27T08:48:12.461Z,5
2022-12-27T08:49:12.380Z,5.2
2022-12-27T08:50:12.452Z,5.1
2022-12-27T08:51:13.816Z,5.1
2022-12-27T08:52:12.741Z,5.1
2022-12-27T08:53:12.604Z,5.1
2022-12-27T08:54:12.659Z,4.9
2022-12-27T08:55:16.375Z,5.2
2022-12-27T08:56:12.856Z,5.3
2022-12-27T08:57:32.170Z,5.4
2022-12-27T08:58:16.256Z,5.6
2022-12-27T08:59:13.121Z,5.6
2022-12-27T09:00:13.066Z,5.6
2022-12-27T09:01:33.745Z,5.6
2022-12-27T09:02:14.354Z,5.4
2022-12-27T09:03:20.908Z,5.4
2022-12-27T09:04:14.816Z,5.2
2022-12-27T09:05:13.395Z,5.1
2022-12-27T09:06:13.458Z,5
2022-12-27T09:07:13.527Z,4.9
2022-12-27T09:08:13.564Z,4.8
2022-12-27T09:09:13.661Z,4.9
2022-12-27T09:10:13.716Z,5
2022-12-27T09:11:13.730Z,5
2022-12-27T09:12:13.792Z,5
2022-12-27T09:13:13.822Z,4.9
2022-12-27T09:14:13.915Z,5
2022-12-27T09:15:14.013Z,5
2022-12-27T09:16:14.147Z,5
2022-12-27T09:17:14.112Z,5.2
2022-12-27T09:18:14.140Z,5.1
2022-12-27T09:19:14.172Z,5.1
2022-12-27T09:20:14.241Z,5
2022-12-27T09:21:14.257Z,5.1
2022-12-27T09:22:14.305Z,5.3
2022-12-27T09:23:14.314Z,5.7
2022-12-27T09:24:14.471Z,6
2022-12-27T09:25:14.426Z,6.1
2022-12-27T09:26:14.455Z,6.2
2022-12-27T09:27:14.526Z,6.3
2022-12-27T09:28:14.544Z,6.4
2022-12-27T09:29:14.564Z,6.6
2022-12-27T09:30:14.625Z,6.7
2022-12-27T09:31:14.685Z,6.9
2022-12-27T09:32:14.680Z,6.9
2022-12-27T09:33:14.742Z,6.8
2022-12-27T09:34:14.779Z,6.9
2022-12-27T09:35:14.804Z,7.3
2022-12-27T09:36:14.796Z,7.9
2022-12-27T09:37:14.835Z,8.2
2022-12-27T09:38:14.853Z,8.3
2022-12-27T09:39:14.885Z,7.8
2022-12-27T09:40:14.922Z,7.5
2022-12-27T09:41:19.364Z,7.5
2022-12-27T09:43:22.497Z,7.5
2022-12-27T09:44:15.057Z,7.3
2022-12-27T09:45:15.073Z,7.2
2022-12-27T09:46:15.156Z,7
2022-12-27T09:47:15.144Z,7
2022-12-27T09:48:15.193Z,7.1
2022-12-27T09:49:15.264Z,7.3
2022-12-27T09:50:15.303Z,7.6
2022-12-27T09:51:15.316Z,7.9
2022-12-27T09:52:15.314Z,8
2022-12-27T09:53:15.311Z,8.3
2022-12-27T09:54:15.383Z,8.5
2022-12-27T09:55:15.386Z,8.3
2022-12-27T09:56:15.413Z,8.1
2022-12-27T09:57:20.103Z,8.7
2022-12-27T09:58:15.492Z,8.7
2022-12-27T09:59:15.536Z,8.5
2022-12-27T10:00:15.590Z,8.5
2022-12-27T10:01:15.674Z,8.7
2022-12-27T10:02:15.682Z,8.5
2022-12-27T10:03:15.678Z,8.1
2022-12-27T10:04:15.744Z,7.9
2022-12-27T10:05:20.648Z,7.7
2022-12-27T10:06:15.975Z,7.4
2022-12-27T10:07:15.936Z,7.4
2022-12-27T10:08:16.010Z,7.4
2022-12-27T10:09:16.087Z,7.2
2022-12-27T10:10:16.161Z,7
2022-12-27T10:11:16.211Z,7.1
2022-12-27T10:12:16.273Z,6.7
2022-12-27T10:13:16.331Z,7.1
2022-12-27T10:14:16.424Z,7.3
2022-12-27T10:15:16.498Z,7.6
2022-12-27T10:16:16.586Z,7.9
2022-12-27T10:17:16.560Z,8.1
2022-12-27T10:18:16.635Z,8.2
2022-12-27T10:19:16.693Z,8.1
2022-12-27T10:20:16.781Z,7.9
2022-12-27T10:21:16.826Z,7.7
2022-12-27T10:22:16.852Z,7.7
2022-12-27T10:23:16.899Z,7.3
2022-12-27T10:24:16.961Z,7.2
2022-12-27T10:25:16.981Z,7.6
2022-12-27T10:26:17.122Z,7.4
2022-12-27T10:27:17.086Z,7.3
2022-12-27T10:28:17.360Z,7.3
2022-12-27T10:29:17.379Z,7.3
2022-12-27T10:30:17.228Z,7.9
2022-12-27T10:31:17.258Z,8.7
2022-12-27T10:32:17.325Z,8.6
2022-12-27T10:33:17.350Z,8.7
2022-12-27T10:34:17.434Z,9
2022-12-27T10:35:17.444Z,9
2022-12-27T10:36:17.530Z,9.1
2022-12-27T10:37:17.578Z,9.4
2022-12-27T10:38:17.598Z,9.3
2022-12-27T10:39:17.662Z,9.3
2022-12-27T10:40:17.697Z,9.2
2022-12-27T10:41:17.731Z,9.6
2022-12-27T10:42:17.737Z,10
2022-12-27T10:43:17.799Z,10.1
2022-12-27T10:44:17.837Z,9.9
2022-12-27T10:45:17.875Z,9.8
2022-12-27T10:46:17.920Z,9.6
2022-12-27T10:47:17.931Z,9.6
2022-12-27T10:48:18.069Z,10.1
2022-12-27T10:49:20.900Z,9.9
2022-12-27T10:50:17.999Z,10.1
2022-12-27T10:51:18.065Z,10.4
2022-12-27T10:52:18.084Z,10.7
2022-12-27T10:53:18.180Z,10.8
2022-12-27T10:54:18.247Z,11.3
2022-12-27T10:55:18.218Z,11.1
2022-12-27T10:56:18.481Z,10.6
2022-12-27T10:57:18.294Z,11.2
2022-12-27T10:58:18.330Z,11.3
2022-12-27T10:59:18.357Z,11.4
2022-12-27T11:00:18.728Z,11.6
2022-12-27T11:01:18.556Z,11.6
2022-12-27T11:02:18.563Z,10.5
2022-12-27T11:03:18.498Z,10.3
2022-12-27T11:04:20.874Z,9.8
2022-12-27T11:05:18.561Z,9.5
2022-12-27T11:06:18.607Z,9.2
2022-12-27T11:07:18.660Z,9.1
2022-12-27T11:08:18.649Z,8.8
2022-12-27T11:09:18.753Z,9
2022-12-27T11:10:18.810Z,9
2022-12-27T11:11:18.754Z,8.8
2022-12-27T11:12:18.833Z,8.7
2022-12-27T11:13:18.899Z,8.6
2022-12-27T11:14:19.238Z,8.5
2022-12-27T11:15:18.954Z,8.5
2022-12-27T11:16:19.077Z,8.6
2022-12-27T11:17:19.081Z,8.6
2022-12-27T11:18:19.135Z,8.5
2022-12-27T11:19:19.192Z,8.3
2022-12-27T11:20:19.260Z,8.3
2022-12-27T11:21:28.601Z,8.5
2022-12-27T11:22:19.353Z,8.7
2022-12-27T11:23:19.411Z,8.3
2022-12-27T11:24:19.488Z,8.1
2022-12-27T11:25:19.567Z,7.9
2022-12-27T11:26:19.604Z,8
2022-12-27T11:27:19.644Z,8
2022-12-27T11:28:19.719Z,8
2022-12-27T11:29:19.777Z,8.1
2022-12-27T11:30:19.845Z,8.1
2022-12-27T11:31:19.956Z,8
2022-12-27T11:32:20.012Z,7.9
2022-12-27T11:33:24.527Z,7.9
2022-12-27T11:34:20.031Z,7.8
2022-12-27T11:35:32.600Z,7.9
2022-12-27T11:36:21.840Z,7.8
2022-12-27T11:37:20.138Z,7.9
2022-12-27T11:38:26.948Z,7.9
2022-12-27T11:39:24.500Z,7.9
2022-12-27T11:40:23.381Z,7.8
2022-12-27T11:41:27.818Z,7.8
2022-12-27T11:43:24.335Z,7.9
2022-12-27T11:44:24.377Z,7.9
2022-12-27T11:45:25.259Z,7.8
2022-12-27T11:46:24.404Z,7.8
2022-12-27T11:47:24.448Z,7.6
2022-12-27T11:48:24.498Z,7.6
2022-12-27T11:49:24.515Z,7.9
2022-12-27T11:50:24.566Z,8
2022-12-27T11:51:24.580Z,8
2022-12-27T11:52:24.588Z,8
2022-12-27T11:53:24.670Z,8.2
2022-12-27T11:54:24.694Z,8.2
2022-12-27T11:55:24.705Z,8.2
2022-12-27T11:56:24.791Z,8
2022-12-27T11:57:24.784Z,7.8
2022-12-27T11:58:24.847Z,7.8
2022-12-27T11:59:24.868Z,7.9
2022-12-27T12:00:24.865Z,7.8
2022-12-27T12:01:24.949Z,7.8
2022-12-27T12:02:25.049Z,7.9
2022-12-27T12:03:25.095Z,7.7
2022-12-27T12:04:25.080Z,7.7
2022-12-27T12:05:25.123Z,7.6
2022-12-27T12:06:26.965Z,7.6
2022-12-27T12:07:25.198Z,7.5
2022-12-27T12:08:25.205Z,7.5
2022-12-27T12:09:25.240Z,7.5
2022-12-27T12:10:25.259Z,7.5
2022-12-27T12:11:25.326Z,7.6
2022-12-27T12:12:25.385Z,7.6
2022-12-27T12:13:25.385Z,7.7
2022-12-27T12:14:25.425Z,7.7
2022-12-27T12:15:30.504Z,7.6
2022-12-27T12:16:25.572Z,7.6
2022-12-27T12:17:27.659Z,7.4
2022-12-27T12:18:25.535Z,7.5
2022-12-27T12:19:25.564Z,7.5
2022-12-27T12:20:25.634Z,7.4
2022-12-27T12:21:25.627Z,7.4
2022-12-27T12:22:25.638Z,7.5
2022-12-27T12:23:25.697Z,7.6
2022-12-27T12:24:25.753Z,7.5
2022-12-27T12:25:25.747Z,7.4
2022-12-27T12:26:25.769Z,7.4
2022-12-27T12:27:25.829Z,7.4
2022-12-27T12:28:56.102Z,7.3
2022-12-27T12:29:26.031Z,7.3
2022-12-27T12:30:27.572Z,7.4
2022-12-27T12:31:26.167Z,7.3
2022-12-27T12:32:26.203Z,7.5
2022-12-27T12:33:31.246Z,7.6
2022-12-27T12:34:26.341Z,7.6
2022-12-27T12:35:26.453Z,7.6
2022-12-27T12:36:26.511Z,7.6
2022-12-27T12:37:26.618Z,7.6
2022-12-27T12:38:26.657Z,7.8
2022-12-27T12:39:26.731Z,7.9
2022-12-27T12:40:28.321Z,8
2022-12-27T12:41:26.814Z,8
2022-12-27T12:42:26.916Z,7.9
2022-12-27T12:43:26.910Z,7.9
2022-12-27T12:44:26.994Z,8
2022-12-27T12:45:27.024Z,7.9
2022-12-27T12:46:27.130Z,7.8
2022-12-27T12:47:27.077Z,7.8
2022-12-27T12:48:27.113Z,7.7
2022-12-27T12:49:27.160Z,7.6
2022-12-27T12:50:27.176Z,7.6
2022-12-27T12:51:27.213Z,7.5
2022-12-27T12:52:27.246Z,7.5
2022-12-27T12:53:27.296Z,7.6
2022-12-27T12:54:27.293Z,7.5
2022-12-27T12:55:27.332Z,7.5
2022-12-27T12:56:27.369Z,7.5
2022-12-27T12:58:53.251Z,7.6
2022-12-27T12:59:27.890Z,7.7
2022-12-27T13:00:27.541Z,7.7
2022-12-27T13:01:27.771Z,7.7
2022-12-27T13:02:27.858Z,7.5
2022-12-27T13:03:28.739Z,7.5
2022-12-27T13:04:33.166Z,7.6
2022-12-27T13:05:28.030Z,7.6
2022-12-27T13:06:27.810Z,7.7
2022-12-27T13:07:27.739Z,7.7
2022-12-27T13:08:27.783Z,7.8
2022-12-27T13:09:27.857Z,7.8
2022-12-27T13:10:27.910Z,7.8
2022-12-27T13:11:28.200Z,7.8
2022-12-27T13:12:27.943Z,7.8
2022-12-27T13:13:27.989Z,7.8
2022-12-27T13:14:28.617Z,7.7
2022-12-27T13:15:30.023Z,7.6
2022-12-27T13:16:28.171Z,7.7
2022-12-27T13:17:28.071Z,7.6
2022-12-27T13:18:30.589Z,7.7
2022-12-27T13:19:28.144Z,7.7
2022-12-27T13:20:28.197Z,7.7
2022-12-27T13:21:28.228Z,7.7
2022-12-27T13:22:33.261Z,7.6
2022-12-27T13:23:28.319Z,7.7
2022-12-27T13:24:30.034Z,7.7
2022-12-27T13:25:28.354Z,7.6
2022-12-27T13:26:29.200Z,7.7
2022-12-27T13:27:28.416Z,7.6
2022-12-27T13:28:28.764Z,7.7
2022-12-27T13:30:28.569Z,7.6
2022-12-27T13:30:54.789Z,7.7
2022-12-27T13:31:28.616Z,7.6
2022-12-27T13:32:28.658Z,7.5
2022-12-27T13:33:28.679Z,7.5
2022-12-27T13:34:28.716Z,7.4
2022-12-27T13:35:28.724Z,7.5
2022-12-27T13:36:28.876Z,7.5
2022-12-27T13:37:29.032Z,7.6
2022-12-27T13:38:29.085Z,7.5
2022-12-27T13:39:28.961Z,7.6
2022-12-27T13:40:29.059Z,7.6
2022-12-27T13:41:30.855Z,7.6
2022-12-27T13:42:29.111Z,7.5
2022-12-27T13:43:29.197Z,7.4
2022-12-27T13:44:29.485Z,7.4
2022-12-27T13:45:39.539Z,7.4
2022-12-27T13:46:29.532Z,7.5
2022-12-27T13:47:29.398Z,7.5
2022-12-27T13:48:29.745Z,7.4
2022-12-27T13:49:29.823Z,7.4
2022-12-27T13:50:29.932Z,7.4
2022-12-27T13:51:29.728Z,7.3
2022-12-27T13:52:29.795Z,7.3
2022-12-27T13:53:29.876Z,7.3
2022-12-27T13:54:29.886Z,7.3
2022-12-27T13:55:29.910Z,7.3
2022-12-27T13:56:54.680Z,7.3
2022-12-27T13:57:29.975Z,7.3
2022-12-27T13:58:30.066Z,7.3
2022-12-27T13:59:30.036Z,7.3
2022-12-27T14:00:30.245Z,7.2
2022-12-27T14:02:01.566Z,7.3
2022-12-27T14:02:34.406Z,7.3
2022-12-27T14:03:30.213Z,7.3
2022-12-27T14:04:30.257Z,7.3
2022-12-27T14:05:30.261Z,7.3
2022-12-27T14:06:30.288Z,7.3
2022-12-27T14:07:30.340Z,7.3
2022-12-27T14:08:30.376Z,7.3
2022-12-27T14:09:30.435Z,7.2
2022-12-27T14:10:31.523Z,7.3
2022-12-27T14:11:30.521Z,7.3
2022-12-27T14:12:30.515Z,7.4
2022-12-27T14:13:30.549Z,7.4
2022-12-27T14:14:42.346Z,7.4
2022-12-27T14:15:30.690Z,7.4
2022-12-27T14:16:30.645Z,7.4
2022-12-27T14:17:30.713Z,7.5
2022-12-27T14:18:30.731Z,7.6
2022-12-27T14:19:31.089Z,7.6
2022-12-27T14:20:30.815Z,7.5
2022-12-27T14:21:30.805Z,7.6
2022-12-27T14:22:30.869Z,7.6
2022-12-27T14:23:30.893Z,7.6
2022-12-27T14:24:31.023Z,7.5
2022-12-27T14:25:31.219Z,7.4
2022-12-27T14:26:35.983Z,7.4
2022-12-27T14:27:31.035Z,7.3
2022-12-27T14:33:18.825Z,7.3
2022-12-27T14:34:40.658Z,7.1
2022-12-27T14:35:40.763Z,7.2
2022-12-27T14:36:40.699Z,7.2
2022-12-27T14:37:40.734Z,7.3
2022-12-27T14:38:40.790Z,7.3